Terminal Aerodrome Forecast
Issued by NWS

Home | Current Version | Previous Version | Text Only | Print | Product List | Glossary On
Versions: 1 2 3 4 5 6 7 8 9 10 11 12 13 14
471
FTUS46 KLOX 262325
TAFBUR
TAF
KBUR 262325Z 2700/2724 17010KT P6SM FEW070 SCT200
     FM270400 12006KT P6SM SCT200
     FM271900 17010KT P6SM FEW070 SCT200=

USA.gov is the U.S. government's official web portal to all federal, state and local government web resources and services.